sensor_id;sensor_type;location;lat;lon;timestamp;P1;durP1;ratioP1;P2;durP2;ratioP2
48925;SDS011;39838;59.938;30.642;2022-12-29T00:00:53;7.13;;;2.80;;
48925;SDS011;39838;59.938;30.642;2022-12-29T00:03:20;7.15;;;3.00;;
48925;SDS011;39838;59.938;30.642;2022-12-29T00:05:55;6.70;;;2.90;;
48925;SDS011;39838;59.938;30.642;2022-12-29T00:08:22;4.90;;;3.00;;
48925;SDS011;39838;59.938;30.642;2022-12-29T00:11:04;5.55;;;2.80;;
48925;SDS011;39838;59.938;30.642;2022-12-29T00:13:32;5.32;;;2.80;;
48925;SDS011;39838;59.938;30.642;2022-12-29T00:16:16;4.90;;;2.70;;
48925;SDS011;39838;59.938;30.642;2022-12-29T00:18:43;6.00;;;3.10;;
48925;SDS011;39838;59.938;30.642;2022-12-29T00:21:13;4.68;;;2.80;;
48925;SDS011;39838;59.938;30.642;2022-12-29T00:23:59;6.18;;;2.92;;
48925;SDS011;39838;59.938;30.642;2022-12-29T00:26:44;5.43;;;3.08;;
48925;SDS011;39838;59.938;30.642;2022-12-29T00:29:29;5.63;;;2.80;;
48925;SDS011;39838;59.938;30.642;2022-12-29T00:32:13;6.85;;;2.72;;
48925;SDS011;39838;59.938;30.642;2022-12-29T00:34:57;6.07;;;2.85;;
48925;SDS011;39838;59.938;30.642;2022-12-29T00:37:38;6.63;;;2.90;;
48925;SDS011;39838;59.938;30.642;2022-12-29T00:40:25;5.57;;;2.58;;
48925;SDS011;39838;59.938;30.642;2022-12-29T00:43:09;6.13;;;3.00;;
48925;SDS011;39838;59.938;30.642;2022-12-29T00:45:54;6.82;;;2.80;;
48925;SDS011;39838;59.938;30.642;2022-12-29T00:48:21;4.53;;;2.53;;
48925;SDS011;39838;59.938;30.642;2022-12-29T00:51:02;7.18;;;2.83;;
48925;SDS011;39838;59.938;30.642;2022-12-29T00:53:31;8.73;;;2.80;;
48925;SDS011;39838;59.938;30.642;2022-12-29T00:55:59;5.72;;;2.92;;
48925;SDS011;39838;59.938;30.642;2022-12-29T00:58:26;5.60;;;2.60;;
48925;SDS011;39838;59.938;30.642;2022-12-29T01:01:00;6.03;;;2.90;;
48925;SDS011;39838;59.938;30.642;2022-12-29T01:03:28;6.70;;;3.00;;
48925;SDS011;39838;59.938;30.642;2022-12-29T01:05:55;6.65;;;2.67;;
48925;SDS011;39838;59.938;30.642;2022-12-29T01:08:22;5.95;;;3.10;;
48925;SDS011;39838;59.938;30.642;2022-12-29T01:10:58;6.13;;;2.70;;
48925;SDS011;39838;59.938;30.642;2022-12-29T01:13:25;7.55;;;3.00;;
48925;SDS011;39838;59.938;30.642;2022-12-29T01:15:52;5.40;;;3.15;;
48925;SDS011;39838;59.938;30.642;2022-12-29T01:18:20;7.53;;;2.88;;
48925;SDS011;39838;59.938;30.642;2022-12-29T01:20:48;6.88;;;2.83;;
48925;SDS011;39838;59.938;30.642;2022-12-29T01:23:15;5.07;;;3.45;;
48925;SDS011;39838;59.938;30.642;2022-12-29T01:25:43;7.07;;;2.75;;
48925;SDS011;39838;59.938;30.642;2022-12-29T01:28:11;6.88;;;2.80;;
48925;SDS011;39838;59.938;30.642;2022-12-29T01:30:39;5.35;;;2.70;;
48925;SDS011;39838;59.938;30.642;2022-12-29T01:33:06;5.57;;;3.00;;
48925;SDS011;39838;59.938;30.642;2022-12-29T01:35:33;5.20;;;2.92;;
48925;SDS011;39838;59.938;30.642;2022-12-29T01:38:00;5.93;;;3.05;;
48925;SDS011;39838;59.938;30.642;2022-12-29T01:40:27;4.55;;;2.75;;
48925;SDS011;39838;59.938;30.642;2022-12-29T01:42:54;4.40;;;2.90;;
48925;SDS011;39838;59.938;30.642;2022-12-29T01:45:23;4.90;;;2.70;;
48925;SDS011;39838;59.938;30.642;2022-12-29T01:47:52;7.70;;;3.15;;
48925;SDS011;39838;59.938;30.642;2022-12-29T01:50:24;4.75;;;3.03;;
48925;SDS011;39838;59.938;30.642;2022-12-29T01:52:56;5.93;;;2.97;;
48925;SDS011;39838;59.938;30.642;2022-12-29T01:55:26;7.70;;;3.42;;
48925;SDS011;39838;59.938;30.642;2022-12-29T01:57:55;4.25;;;3.10;;
48925;SDS011;39838;59.938;30.642;2022-12-29T02:00:31;6.53;;;3.47;;
48925;SDS011;39838;59.938;30.642;2022-12-29T02:02:58;5.63;;;2.90;;
48925;SDS011;39838;59.938;30.642;2022-12-29T02:05:27;7.43;;;2.90;;
48925;SDS011;39838;59.938;30.642;2022-12-29T02:07:59;6.78;;;2.88;;
48925;SDS011;39838;59.938;30.642;2022-12-29T02:10:28;5.25;;;2.67;;
48925;SDS011;39838;59.938;30.642;2022-12-29T02:12:58;6.53;;;2.72;;
48925;SDS011;39838;59.938;30.642;2022-12-29T02:15:36;9.55;;;2.90;;
48925;SDS011;39838;59.938;30.642;2022-12-29T02:18:26;7.18;;;2.63;;
48925;SDS011;39838;59.938;30.642;2022-12-29T02:21:07;6.95;;;2.65;;
48925;SDS011;39838;59.938;30.642;2022-12-29T02:24:14;4.50;;;2.70;;
48925;SDS011;39838;59.938;30.642;2022-12-29T02:27:03;6.95;;;2.80;;
48925;SDS011;39838;59.938;30.642;2022-12-29T02:32:51;4.35;;;2.50;;
48925;SDS011;39838;59.938;30.642;2022-12-29T02:35:29;4.95;;;2.90;;
48925;SDS011;39838;59.938;30.642;2022-12-29T02:38:06;5.32;;;3.00;;
48925;SDS011;39838;59.938;30.642;2022-12-29T02:40:46;6.35;;;2.70;;
48925;SDS011;39838;59.938;30.642;2022-12-29T02:43:21;4.22;;;2.60;;
48925;SDS011;39838;59.938;30.642;2022-12-29T02:45:53;6.00;;;2.97;;
48925;SDS011;39838;59.938;30.642;2022-12-29T02:48:26;6.63;;;2.95;;
48925;SDS011;39838;59.938;30.642;2022-12-29T02:53:27;5.68;;;3.17;;
48925;SDS011;39838;59.938;30.642;2022-12-29T02:56:14;6.05;;;2.70;;
48925;SDS011;39838;59.938;30.642;2022-12-29T02:58:41;4.53;;;2.80;;
48925;SDS011;39838;59.938;30.642;2022-12-29T03:01:13;6.78;;;3.28;;
48925;SDS011;39838;59.938;30.642;2022-12-29T03:03:55;5.30;;;3.17;;
48925;SDS011;39838;59.938;30.642;2022-12-29T03:06:34;7.20;;;3.42;;
48925;SDS011;39838;59.938;30.642;2022-12-29T03:09:19;6.00;;;3.35;;
48925;SDS011;39838;59.938;30.642;2022-12-29T03:11:58;5.25;;;3.38;;
48925;SDS011;39838;59.938;30.642;2022-12-29T03:14:38;5.25;;;3.70;;
48925;SDS011;39838;59.938;30.642;2022-12-29T03:17:29;7.10;;;3.78;;
48925;SDS011;39838;59.938;30.642;2022-12-29T03:20:07;6.05;;;3.42;;
48925;SDS011;39838;59.938;30.642;2022-12-29T03:22:38;8.38;;;3.85;;
48925;SDS011;39838;59.938;30.642;2022-12-29T03:25:09;6.75;;;3.83;;
48925;SDS011;39838;59.938;30.642;2022-12-29T03:27:41;6.50;;;3.85;;
48925;SDS011;39838;59.938;30.642;2022-12-29T03:30:11;8.20;;;3.55;;
48925;SDS011;39838;59.938;30.642;2022-12-29T03:32:40;5.75;;;3.42;;
48925;SDS011;39838;59.938;30.642;2022-12-29T03:35:13;6.20;;;3.22;;
48925;SDS011;39838;59.938;30.642;2022-12-29T03:37:43;5.70;;;3.30;;
48925;SDS011;39838;59.938;30.642;2022-12-29T03:40:16;5.70;;;3.60;;
48925;SDS011;39838;59.938;30.642;2022-12-29T03:42:44;7.63;;;3.40;;
48925;SDS011;39838;59.938;30.642;2022-12-29T03:45:13;11.75;;;3.83;;
48925;SDS011;39838;59.938;30.642;2022-12-29T03:47:40;6.22;;;3.50;;
48925;SDS011;39838;59.938;30.642;2022-12-29T03:50:08;6.60;;;3.30;;
48925;SDS011;39838;59.938;30.642;2022-12-29T03:52:36;5.80;;;3.47;;
48925;SDS011;39838;59.938;30.642;2022-12-29T03:55:04;6.50;;;3.45;;
48925;SDS011;39838;59.938;30.642;2022-12-29T03:57:31;10.10;;;3.45;;
48925;SDS011;39838;59.938;30.642;2022-12-29T03:59:58;6.22;;;3.70;;
48925;SDS011;39838;59.938;30.642;2022-12-29T04:02:26;5.72;;;3.40;;
48925;SDS011;39838;59.938;30.642;2022-12-29T04:04:53;7.43;;;3.78;;
48925;SDS011;39838;59.938;30.642;2022-12-29T04:07:20;5.55;;;3.10;;
48925;SDS011;39838;59.938;30.642;2022-12-29T04:09:48;6.53;;;3.40;;
48925;SDS011;39838;59.938;30.642;2022-12-29T04:12:16;5.43;;;3.40;;
48925;SDS011;39838;59.938;30.642;2022-12-29T04:14:43;6.70;;;3.95;;
48925;SDS011;39838;59.938;30.642;2022-12-29T04:17:10;6.88;;;3.60;;
48925;SDS011;39838;59.938;30.642;2022-12-29T04:19:37;8.55;;;3.60;;
48925;SDS011;39838;59.938;30.642;2022-12-29T04:22:04;8.52;;;3.60;;
48925;SDS011;39838;59.938;30.642;2022-12-29T04:24:32;6.65;;;3.45;;
48925;SDS011;39838;59.938;30.642;2022-12-29T04:27:00;5.47;;;3.30;;
48925;SDS011;39838;59.938;30.642;2022-12-29T04:29:28;7.75;;;3.88;;
48925;SDS011;39838;59.938;30.642;2022-12-29T04:31:55;6.88;;;4.03;;
48925;SDS011;39838;59.938;30.642;2022-12-29T04:34:22;9.38;;;4.88;;
48925;SDS011;39838;59.938;30.642;2022-12-29T04:36:49;8.25;;;3.90;;
48925;SDS011;39838;59.938;30.642;2022-12-29T04:39:16;6.72;;;3.80;;
48925;SDS011;39838;59.938;30.642;2022-12-29T04:41:43;7.47;;;4.50;;
48925;SDS011;39838;59.938;30.642;2022-12-29T04:44:11;10.38;;;4.45;;
48925;SDS011;39838;59.938;30.642;2022-12-29T04:46:38;8.00;;;3.78;;
48925;SDS011;39838;59.938;30.642;2022-12-29T04:49:06;8.88;;;3.90;;
48925;SDS011;39838;59.938;30.642;2022-12-29T04:51:33;10.05;;;4.38;;
48925;SDS011;39838;59.938;30.642;2022-12-29T04:54:01;11.75;;;4.63;;
48925;SDS011;39838;59.938;30.642;2022-12-29T04:56:28;8.52;;;4.40;;
48925;SDS011;39838;59.938;30.642;2022-12-29T04:58:55;11.80;;;4.47;;
48925;SDS011;39838;59.938;30.642;2022-12-29T05:01:24;11.82;;;4.55;;
48925;SDS011;39838;59.938;30.642;2022-12-29T05:03:51;8.35;;;4.60;;
48925;SDS011;39838;59.938;30.642;2022-12-29T05:06:18;9.73;;;4.60;;
48925;SDS011;39838;59.938;30.642;2022-12-29T05:08:46;8.73;;;4.55;;
48925;SDS011;39838;59.938;30.642;2022-12-29T05:11:13;11.32;;;4.68;;
48925;SDS011;39838;59.938;30.642;2022-12-29T05:13:40;11.00;;;4.90;;
48925;SDS011;39838;59.938;30.642;2022-12-29T05:16:07;8.20;;;4.28;;
48925;SDS011;39838;59.938;30.642;2022-12-29T05:18:35;10.00;;;4.30;;
48925;SDS011;39838;59.938;30.642;2022-12-29T05:21:03;7.22;;;4.18;;
48925;SDS011;39838;59.938;30.642;2022-12-29T05:23:30;11.52;;;4.47;;
48925;SDS011;39838;59.938;30.642;2022-12-29T05:25:57;6.47;;;3.70;;
48925;SDS011;39838;59.938;30.642;2022-12-29T05:28:24;8.90;;;4.07;;
48925;SDS011;39838;59.938;30.642;2022-12-29T05:30:51;6.53;;;3.40;;
48925;SDS011;39838;59.938;30.642;2022-12-29T05:33:18;10.82;;;4.15;;
48925;SDS011;39838;59.938;30.642;2022-12-29T05:35:47;10.60;;;4.00;;
48925;SDS011;39838;59.938;30.642;2022-12-29T05:38:14;8.25;;;3.53;;
48925;SDS011;39838;59.938;30.642;2022-12-29T05:40:42;8.60;;;3.90;;
48925;SDS011;39838;59.938;30.642;2022-12-29T05:43:09;8.38;;;3.83;;
48925;SDS011;39838;59.938;30.642;2022-12-29T05:45:37;10.55;;;3.95;;
48925;SDS011;39838;59.938;30.642;2022-12-29T05:48:04;7.20;;;3.95;;
48925;SDS011;39838;59.938;30.642;2022-12-29T05:50:31;7.70;;;4.22;;
48925;SDS011;39838;59.938;30.642;2022-12-29T05:53:00;11.65;;;4.00;;
48925;SDS011;39838;59.938;30.642;2022-12-29T05:55:27;6.80;;;3.72;;
48925;SDS011;39838;59.938;30.642;2022-12-29T05:57:54;8.50;;;3.90;;
48925;SDS011;39838;59.938;30.642;2022-12-29T06:00:21;8.30;;;3.40;;
48925;SDS011;39838;59.938;30.642;2022-12-29T06:02:48;9.13;;;3.60;;
48925;SDS011;39838;59.938;30.642;2022-12-29T06:05:16;6.43;;;2.80;;
48925;SDS011;39838;59.938;30.642;2022-12-29T06:07:43;8.23;;;3.30;;
48925;SDS011;39838;59.938;30.642;2022-12-29T06:10:12;6.68;;;3.10;;
48925;SDS011;39838;59.938;30.642;2022-12-29T06:12:39;8.55;;;3.67;;
48925;SDS011;39838;59.938;30.642;2022-12-29T06:15:06;8.80;;;3.67;;
48925;SDS011;39838;59.938;30.642;2022-12-29T06:17:34;8.32;;;3.58;;
48925;SDS011;39838;59.938;30.642;2022-12-29T06:20:01;6.65;;;3.50;;
48925;SDS011;39838;59.938;30.642;2022-12-29T06:22:29;8.80;;;3.00;;
48925;SDS011;39838;59.938;30.642;2022-12-29T06:24:56;6.47;;;3.13;;
48925;SDS011;39838;59.938;30.642;2022-12-29T06:27:25;6.35;;;2.80;;
48925;SDS011;39838;59.938;30.642;2022-12-29T06:29:52;5.05;;;2.65;;
48925;SDS011;39838;59.938;30.642;2022-12-29T06:32:19;6.45;;;2.83;;
48925;SDS011;39838;59.938;30.642;2022-12-29T06:34:46;4.95;;;2.88;;
48925;SDS011;39838;59.938;30.642;2022-12-29T06:37:13;5.38;;;2.80;;
48925;SDS011;39838;59.938;30.642;2022-12-29T06:39:40;6.50;;;2.80;;
48925;SDS011;39838;59.938;30.642;2022-12-29T06:42:08;3.60;;;2.65;;
48925;SDS011;39838;59.938;30.642;2022-12-29T06:44:37;3.92;;;2.45;;
48925;SDS011;39838;59.938;30.642;2022-12-29T06:47:04;7.43;;;2.90;;
48925;SDS011;39838;59.938;30.642;2022-12-29T06:49:31;5.70;;;2.75;;
48925;SDS011;39838;59.938;30.642;2022-12-29T06:51:58;6.50;;;2.75;;
48925;SDS011;39838;59.938;30.642;2022-12-29T06:54:25;6.55;;;2.75;;
48925;SDS011;39838;59.938;30.642;2022-12-29T06:56:53;5.57;;;2.63;;
48925;SDS011;39838;59.938;30.642;2022-12-29T06:59:20;7.30;;;3.05;;
48925;SDS011;39838;59.938;30.642;2022-12-29T07:01:49;6.82;;;3.10;;
48925;SDS011;39838;59.938;30.642;2022-12-29T07:04:16;5.53;;;3.58;;
48925;SDS011;39838;59.938;30.642;2022-12-29T07:06:43;8.23;;;2.88;;
48925;SDS011;39838;59.938;30.642;2022-12-29T07:09:10;5.20;;;2.90;;
48925;SDS011;39838;59.938;30.642;2022-12-29T07:11:37;7.00;;;3.20;;
48925;SDS011;39838;59.938;30.642;2022-12-29T07:14:04;7.18;;;3.08;;
48925;SDS011;39838;59.938;30.642;2022-12-29T07:16:32;6.95;;;3.00;;
48925;SDS011;39838;59.938;30.642;2022-12-29T07:19:01;6.25;;;3.20;;
48925;SDS011;39838;59.938;30.642;2022-12-29T07:21:28;5.50;;;3.13;;
48925;SDS011;39838;59.938;30.642;2022-12-29T07:23:55;5.38;;;2.90;;
48925;SDS011;39838;59.938;30.642;2022-12-29T07:26:22;5.22;;;2.80;;
48925;SDS011;39838;59.938;30.642;2022-12-29T07:28:49;7.75;;;3.15;;
48925;SDS011;39838;59.938;30.642;2022-12-29T07:31:17;7.60;;;3.03;;
48925;SDS011;39838;59.938;30.642;2022-12-29T07:33:48;5.63;;;3.15;;
48925;SDS011;39838;59.938;30.642;2022-12-29T07:36:17;8.57;;;3.00;;
48925;SDS011;39838;59.938;30.642;2022-12-29T07:38:44;6.55;;;3.00;;
48925;SDS011;39838;59.938;30.642;2022-12-29T07:41:11;7.40;;;3.03;;
48925;SDS011;39838;59.938;30.642;2022-12-29T07:43:38;8.60;;;3.22;;
48925;SDS011;39838;59.938;30.642;2022-12-29T07:46:05;7.68;;;3.28;;
48925;SDS011;39838;59.938;30.642;2022-12-29T07:48:34;5.80;;;2.85;;
48925;SDS011;39838;59.938;30.642;2022-12-29T07:51:01;5.45;;;2.80;;
48925;SDS011;39838;59.938;30.642;2022-12-29T07:53:29;9.18;;;3.13;;
48925;SDS011;39838;59.938;30.642;2022-12-29T07:55:57;7.18;;;2.92;;
48925;SDS011;39838;59.938;30.642;2022-12-29T07:58:24;8.75;;;3.10;;
48925;SDS011;39838;59.938;30.642;2022-12-29T08:00:53;7.57;;;3.30;;
48925;SDS011;39838;59.938;30.642;2022-12-29T08:03:24;8.93;;;3.35;;
48925;SDS011;39838;59.938;30.642;2022-12-29T08:05:54;7.88;;;3.25;;
48925;SDS011;39838;59.938;30.642;2022-12-29T08:08:22;12.75;;;4.10;;
48925;SDS011;39838;59.938;30.642;2022-12-29T08:10:54;11.93;;;3.42;;
48925;SDS011;39838;59.938;30.642;2022-12-29T08:13:21;8.95;;;3.13;;
48925;SDS011;39838;59.938;30.642;2022-12-29T08:15:48;7.53;;;3.60;;
48925;SDS011;39838;59.938;30.642;2022-12-29T08:18:15;6.88;;;3.30;;
48925;SDS011;39838;59.938;30.642;2022-12-29T08:20:42;7.40;;;3.13;;
48925;SDS011;39838;59.938;30.642;2022-12-29T08:23:12;7.50;;;2.95;;
48925;SDS011;39838;59.938;30.642;2022-12-29T08:25:41;7.72;;;3.30;;
48925;SDS011;39838;59.938;30.642;2022-12-29T08:28:15;6.40;;;3.42;;
48925;SDS011;39838;59.938;30.642;2022-12-29T08:30:42;8.52;;;3.25;;
48925;SDS011;39838;59.938;30.642;2022-12-29T08:33:11;7.82;;;3.25;;
48925;SDS011;39838;59.938;30.642;2022-12-29T08:35:38;8.50;;;3.20;;
48925;SDS011;39838;59.938;30.642;2022-12-29T08:38:05;8.02;;;3.90;;
48925;SDS011;39838;59.938;30.642;2022-12-29T08:40:32;10.85;;;3.42;;
48925;SDS011;39838;59.938;30.642;2022-12-29T08:42:59;7.53;;;3.80;;
48925;SDS011;39838;59.938;30.642;2022-12-29T08:45:28;7.38;;;3.42;;
48925;SDS011;39838;59.938;30.642;2022-12-29T08:47:55;8.57;;;4.03;;
48925;SDS011;39838;59.938;30.642;2022-12-29T08:50:22;6.03;;;3.13;;
48925;SDS011;39838;59.938;30.642;2022-12-29T08:52:52;8.30;;;3.78;;
48925;SDS011;39838;59.938;30.642;2022-12-29T08:55:26;8.10;;;3.58;;
48925;SDS011;39838;59.938;30.642;2022-12-29T08:57:53;9.13;;;4.20;;
48925;SDS011;39838;59.938;30.642;2022-12-29T09:00:22;7.90;;;4.00;;
48925;SDS011;39838;59.938;30.642;2022-12-29T09:02:52;8.82;;;3.67;;
48925;SDS011;39838;59.938;30.642;2022-12-29T09:05:22;9.20;;;4.50;;
48925;SDS011;39838;59.938;30.642;2022-12-29T09:07:49;10.20;;;4.90;;
48925;SDS011;39838;59.938;30.642;2022-12-29T09:10:16;11.00;;;4.50;;
48925;SDS011;39838;59.938;30.642;2022-12-29T09:12:45;11.00;;;5.07;;
48925;SDS011;39838;59.938;30.642;2022-12-29T09:15:12;9.55;;;4.90;;
48925;SDS011;39838;59.938;30.642;2022-12-29T09:17:41;10.63;;;4.57;;
48925;SDS011;39838;59.938;30.642;2022-12-29T09:20:11;10.82;;;5.53;;
48925;SDS011;39838;59.938;30.642;2022-12-29T09:22:41;11.25;;;5.22;;
48925;SDS011;39838;59.938;30.642;2022-12-29T09:25:11;13.60;;;6.43;;
48925;SDS011;39838;59.938;30.642;2022-12-29T09:27:38;12.27;;;6.53;;
48925;SDS011;39838;59.938;30.642;2022-12-29T09:30:11;17.50;;;8.45;;
48925;SDS011;39838;59.938;30.642;2022-12-29T09:32:42;15.40;;;7.45;;
48925;SDS011;39838;59.938;30.642;2022-12-29T09:35:14;13.93;;;6.90;;
48925;SDS011;39838;59.938;30.642;2022-12-29T09:37:42;10.15;;;6.05;;
48925;SDS011;39838;59.938;30.642;2022-12-29T09:40:13;13.60;;;7.15;;
48925;SDS011;39838;59.938;30.642;2022-12-29T09:42:50;11.85;;;6.25;;
48925;SDS011;39838;59.938;30.642;2022-12-29T09:45:28;14.35;;;6.50;;
48925;SDS011;39838;59.938;30.642;2022-12-29T09:48:03;13.65;;;6.78;;
48925;SDS011;39838;59.938;30.642;2022-12-29T09:50:38;12.40;;;6.57;;
48925;SDS011;39838;59.938;30.642;2022-12-29T09:53:13;14.65;;;6.65;;
48925;SDS011;39838;59.938;30.642;2022-12-29T09:55:45;13.48;;;6.90;;
48925;SDS011;39838;59.938;30.642;2022-12-29T09:58:20;14.05;;;6.18;;
48925;SDS011;39838;59.938;30.642;2022-12-29T10:00:52;13.70;;;6.55;;
48925;SDS011;39838;59.938;30.642;2022-12-29T10:03:24;13.15;;;6.90;;
48925;SDS011;39838;59.938;30.642;2022-12-29T10:05:56;14.15;;;6.93;;
48925;SDS011;39838;59.938;30.642;2022-12-29T10:08:37;11.98;;;6.32;;
48925;SDS011;39838;59.938;30.642;2022-12-29T10:11:11;13.35;;;6.45;;
48925;SDS011;39838;59.938;30.642;2022-12-29T10:13:55;10.73;;;6.32;;
48925;SDS011;39838;59.938;30.642;2022-12-29T10:19:11;12.30;;;6.40;;
48925;SDS011;39838;59.938;30.642;2022-12-29T10:21:59;15.63;;;7.18;;
48925;SDS011;39838;59.938;30.642;2022-12-29T10:24:39;15.77;;;6.70;;
48925;SDS011;39838;59.938;30.642;2022-12-29T10:27:09;12.35;;;6.15;;
48925;SDS011;39838;59.938;30.642;2022-12-29T10:29:41;10.75;;;5.47;;
48925;SDS011;39838;59.938;30.642;2022-12-29T10:32:17;12.45;;;5.75;;
48925;SDS011;39838;59.938;30.642;2022-12-29T10:34:55;11.60;;;5.45;;
48925;SDS011;39838;59.938;30.642;2022-12-29T10:37:32;10.88;;;6.00;;
48925;SDS011;39838;59.938;30.642;2022-12-29T10:40:13;11.48;;;5.47;;
48925;SDS011;39838;59.938;30.642;2022-12-29T10:42:49;10.68;;;5.53;;
48925;SDS011;39838;59.938;30.642;2022-12-29T10:45:19;11.35;;;5.97;;
48925;SDS011;39838;59.938;30.642;2022-12-29T10:47:53;9.07;;;5.30;;
48925;SDS011;39838;59.938;30.642;2022-12-29T10:50:24;11.50;;;5.40;;
48925;SDS011;39838;59.938;30.642;2022-12-29T10:52:56;9.88;;;5.63;;
48925;SDS011;39838;59.938;30.642;2022-12-29T10:55:30;9.95;;;5.38;;
48925;SDS011;39838;59.938;30.642;2022-12-29T10:58:03;13.80;;;6.43;;
48925;SDS011;39838;59.938;30.642;2022-12-29T11:00:32;12.77;;;6.35;;
48925;SDS011;39838;59.938;30.642;2022-12-29T11:03:06;15.70;;;6.75;;
48925;SDS011;39838;59.938;30.642;2022-12-29T11:05:46;10.65;;;5.90;;
48925;SDS011;39838;59.938;30.642;2022-12-29T11:08:24;8.23;;;5.18;;
48925;SDS011;39838;59.938;30.642;2022-12-29T11:10:58;12.27;;;5.60;;
48925;SDS011;39838;59.938;30.642;2022-12-29T11:13:27;11.68;;;5.72;;
48925;SDS011;39838;59.938;30.642;2022-12-29T11:15:56;10.07;;;5.60;;
48925;SDS011;39838;59.938;30.642;2022-12-29T11:18:25;9.00;;;5.40;;
48925;SDS011;39838;59.938;30.642;2022-12-29T11:21:01;12.27;;;6.03;;
48925;SDS011;39838;59.938;30.642;2022-12-29T11:23:36;10.95;;;6.05;;
48925;SDS011;39838;59.938;30.642;2022-12-29T11:26:06;11.43;;;5.85;;
48925;SDS011;39838;59.938;30.642;2022-12-29T11:28:39;11.70;;;6.10;;
48925;SDS011;39838;59.938;30.642;2022-12-29T11:31:07;11.40;;;5.80;;
48925;SDS011;39838;59.938;30.642;2022-12-29T11:33:36;11.65;;;6.43;;
48925;SDS011;39838;59.938;30.642;2022-12-29T11:36:05;11.50;;;5.97;;
48925;SDS011;39838;59.938;30.642;2022-12-29T11:38:37;11.75;;;6.03;;
48925;SDS011;39838;59.938;30.642;2022-12-29T11:41:06;12.02;;;6.00;;
48925;SDS011;39838;59.938;30.642;2022-12-29T11:43:41;10.35;;;5.88;;
48925;SDS011;39838;59.938;30.642;2022-12-29T11:46:16;9.75;;;5.68;;
48925;SDS011;39838;59.938;30.642;2022-12-29T11:48:48;9.38;;;5.88;;
48925;SDS011;39838;59.938;30.642;2022-12-29T11:51:21;11.00;;;5.43;;
48925;SDS011;39838;59.938;30.642;2022-12-29T11:53:52;9.60;;;5.45;;
48925;SDS011;39838;59.938;30.642;2022-12-29T11:56:32;10.10;;;5.63;;
48925;SDS011;39838;59.938;30.642;2022-12-29T12:01:56;13.57;;;5.43;;
48925;SDS011;39838;59.938;30.642;2022-12-29T12:04:26;9.82;;;5.38;;
48925;SDS011;39838;59.938;30.642;2022-12-29T12:06:58;11.10;;;5.65;;
48925;SDS011;39838;59.938;30.642;2022-12-29T12:09:34;10.68;;;5.75;;
48925;SDS011;39838;59.938;30.642;2022-12-29T12:12:07;9.73;;;4.97;;
48925;SDS011;39838;59.938;30.642;2022-12-29T12:14:45;11.90;;;5.53;;
48925;SDS011;39838;59.938;30.642;2022-12-29T12:17:23;10.98;;;5.70;;
48925;SDS011;39838;59.938;30.642;2022-12-29T12:20:04;11.30;;;6.10;;
48925;SDS011;39838;59.938;30.642;2022-12-29T12:22:49;12.48;;;5.70;;
48925;SDS011;39838;59.938;30.642;2022-12-29T12:25:27;8.60;;;4.80;;
48925;SDS011;39838;59.938;30.642;2022-12-29T12:28:13;11.23;;;5.10;;
48925;SDS011;39838;59.938;30.642;2022-12-29T12:30:49;9.73;;;5.15;;
48925;SDS011;39838;59.938;30.642;2022-12-29T12:33:23;9.82;;;5.03;;
48925;SDS011;39838;59.938;30.642;2022-12-29T12:36:02;9.63;;;5.00;;
48925;SDS011;39838;59.938;30.642;2022-12-29T12:38:42;8.85;;;4.50;;
48925;SDS011;39838;59.938;30.642;2022-12-29T12:41:24;9.30;;;5.43;;
48925;SDS011;39838;59.938;30.642;2022-12-29T12:44:10;11.07;;;6.15;;
48925;SDS011;39838;59.938;30.642;2022-12-29T12:46:54;14.60;;;6.65;;
48925;SDS011;39838;59.938;30.642;2022-12-29T12:52:44;8.70;;;5.50;;
48925;SDS011;39838;59.938;30.642;2022-12-29T12:55:41;10.27;;;5.70;;
48925;SDS011;39838;59.938;30.642;2022-12-29T12:58:35;10.82;;;6.22;;
48925;SDS011;39838;59.938;30.642;2022-12-29T13:01:16;10.98;;;6.80;;
48925;SDS011;39838;59.938;30.642;2022-12-29T13:04:05;9.35;;;5.72;;
48925;SDS011;39838;59.938;30.642;2022-12-29T13:06:51;11.02;;;5.80;;
48925;SDS011;39838;59.938;30.642;2022-12-29T13:09:30;11.00;;;5.88;;
48925;SDS011;39838;59.938;30.642;2022-12-29T13:12:15;10.18;;;5.22;;
48925;SDS011;39838;59.938;30.642;2022-12-29T13:15:02;8.23;;;5.00;;
48925;SDS011;39838;59.938;30.642;2022-12-29T13:17:43;7.93;;;4.60;;
48925;SDS011;39838;59.938;30.642;2022-12-29T13:20:23;9.45;;;4.85;;
48925;SDS011;39838;59.938;30.642;2022-12-29T13:22:59;10.02;;;5.00;;
48925;SDS011;39838;59.938;30.642;2022-12-29T13:25:34;7.57;;;4.82;;
48925;SDS011;39838;59.938;30.642;2022-12-29T13:28:10;7.70;;;4.13;;
48925;SDS011;39838;59.938;30.642;2022-12-29T13:30:45;8.73;;;4.22;;
48925;SDS011;39838;59.938;30.642;2022-12-29T13:33:24;8.68;;;4.20;;
48925;SDS011;39838;59.938;30.642;2022-12-29T13:36:00;8.40;;;4.28;;
48925;SDS011;39838;59.938;30.642;2022-12-29T13:38:33;11.82;;;4.40;;
48925;SDS011;39838;59.938;30.642;2022-12-29T13:41:05;6.90;;;4.15;;
48925;SDS011;39838;59.938;30.642;2022-12-29T13:43:40;8.85;;;4.43;;
48925;SDS011;39838;59.938;30.642;2022-12-29T13:46:15;9.57;;;4.70;;
48925;SDS011;39838;59.938;30.642;2022-12-29T13:48:45;10.55;;;4.88;;
48925;SDS011;39838;59.938;30.642;2022-12-29T13:51:17;7.82;;;4.60;;
48925;SDS011;39838;59.938;30.642;2022-12-29T13:53:53;8.52;;;4.35;;
48925;SDS011;39838;59.938;30.642;2022-12-29T13:56:26;9.80;;;5.28;;
48925;SDS011;39838;59.938;30.642;2022-12-29T13:59:03;10.73;;;5.78;;
48925;SDS011;39838;59.938;30.642;2022-12-29T14:04:11;6.85;;;4.45;;
48925;SDS011;39838;59.938;30.642;2022-12-29T14:06:40;6.75;;;4.10;;
48925;SDS011;39838;59.938;30.642;2022-12-29T14:12:18;7.18;;;4.13;;
48925;SDS011;39838;59.938;30.642;2022-12-29T14:14:48;11.52;;;4.47;;
48925;SDS011;39838;59.938;30.642;2022-12-29T14:17:18;7.65;;;4.25;;
48925;SDS011;39838;59.938;30.642;2022-12-29T14:19:46;9.05;;;4.28;;
48925;SDS011;39838;59.938;30.642;2022-12-29T14:22:22;7.35;;;4.13;;
48925;SDS011;39838;59.938;30.642;2022-12-29T14:24:50;8.57;;;3.95;;
48925;SDS011;39838;59.938;30.642;2022-12-29T14:33:16;7.40;;;3.75;;
48925;SDS011;39838;59.938;30.642;2022-12-29T14:35:47;6.10;;;4.13;;
48925;SDS011;39838;59.938;30.642;2022-12-29T14:38:27;8.75;;;4.30;;
48925;SDS011;39838;59.938;30.642;2022-12-29T14:41:15;8.27;;;4.28;;
48925;SDS011;39838;59.938;30.642;2022-12-29T14:44:01;8.55;;;4.38;;
48925;SDS011;39838;59.938;30.642;2022-12-29T14:46:42;9.38;;;4.35;;
48925;SDS011;39838;59.938;30.642;2022-12-29T14:49:25;8.52;;;4.22;;
48925;SDS011;39838;59.938;30.642;2022-12-29T14:52:03;8.27;;;4.22;;
48925;SDS011;39838;59.938;30.642;2022-12-29T14:54:43;9.00;;;4.45;;
48925;SDS011;39838;59.938;30.642;2022-12-29T14:57:31;6.45;;;4.30;;
48925;SDS011;39838;59.938;30.642;2022-12-29T15:00:12;9.70;;;5.03;;
48925;SDS011;39838;59.938;30.642;2022-12-29T15:02:46;12.20;;;4.75;;
48925;SDS011;39838;59.938;30.642;2022-12-29T15:05:26;10.75;;;5.10;;
48925;SDS011;39838;59.938;30.642;2022-12-29T15:08:00;8.48;;;4.95;;
48925;SDS011;39838;59.938;30.642;2022-12-29T15:10:32;10.10;;;5.10;;
48925;SDS011;39838;59.938;30.642;2022-12-29T15:13:04;13.85;;;5.75;;
48925;SDS011;39838;59.938;30.642;2022-12-29T15:15:41;9.95;;;5.07;;
48925;SDS011;39838;59.938;30.642;2022-12-29T15:18:24;12.25;;;5.20;;
48925;SDS011;39838;59.938;30.642;2022-12-29T15:20:55;11.10;;;4.85;;
48925;SDS011;39838;59.938;30.642;2022-12-29T15:23:24;8.13;;;4.75;;
48925;SDS011;39838;59.938;30.642;2022-12-29T15:25:55;11.95;;;5.25;;